sensor_id;sensor_type;location;lat;lon;timestamp;P1;durP1;ratioP1;P2;durP2;ratioP2
59416;SDS011;45222;52.458;20.914;2023-04-03T00:00:17;1.40;;;0.80;;
59416;SDS011;45222;52.458;20.914;2023-04-03T00:04:23;5.60;;;1.80;;
59416;SDS011;45222;52.458;20.914;2023-04-03T00:08:08;5.90;;;2.10;;
59416;SDS011;45222;52.458;20.914;2023-04-03T00:11:53;4.90;;;2.00;;
59416;SDS011;45222;52.458;20.914;2023-04-03T00:15:39;1.90;;;1.00;;
59416;SDS011;45222;52.458;20.914;2023-04-03T00:19:24;5.70;;;1.90;;
59416;SDS011;45222;52.458;20.914;2023-04-03T00:23:09;5.50;;;2.00;;
59416;SDS011;45222;52.458;20.914;2023-04-03T00:26:54;6.10;;;1.80;;
59416;SDS011;45222;52.458;20.914;2023-04-03T00:30:39;5.20;;;1.90;;
59416;SDS011;45222;52.458;20.914;2023-04-03T00:34:25;5.20;;;1.90;;
59416;SDS011;45222;52.458;20.914;2023-04-03T00:38:10;2.70;;;1.10;;
59416;SDS011;45222;52.458;20.914;2023-04-03T00:41:55;6.00;;;1.80;;
59416;SDS011;45222;52.458;20.914;2023-04-03T00:45:41;5.20;;;1.90;;
59416;SDS011;45222;52.458;20.914;2023-04-03T00:49:27;1.50;;;0.70;;
59416;SDS011;45222;52.458;20.914;2023-04-03T00:53:13;5.50;;;2.00;;
59416;SDS011;45222;52.458;20.914;2023-04-03T00:57:01;4.80;;;1.80;;
59416;SDS011;45222;52.458;20.914;2023-04-03T01:00:50;3.10;;;0.90;;
59416;SDS011;45222;52.458;20.914;2023-04-03T01:04:42;3.50;;;1.10;;
59416;SDS011;45222;52.458;20.914;2023-04-03T01:08:27;6.00;;;1.90;;
59416;SDS011;45222;52.458;20.914;2023-04-03T01:12:14;2.00;;;0.90;;
59416;SDS011;45222;52.458;20.914;2023-04-03T01:16:01;5.40;;;1.70;;
59416;SDS011;45222;52.458;20.914;2023-04-03T01:19:46;4.30;;;1.80;;
59416;SDS011;45222;52.458;20.914;2023-04-03T01:23:49;6.50;;;2.10;;
59416;SDS011;45222;52.458;20.914;2023-04-03T01:27:42;1.90;;;0.80;;
59416;SDS011;45222;52.458;20.914;2023-04-03T01:31:28;4.80;;;1.80;;
59416;SDS011;45222;52.458;20.914;2023-04-03T01:35:16;2.50;;;0.70;;
59416;SDS011;45222;52.458;20.914;2023-04-03T01:39:01;2.50;;;0.90;;
59416;SDS011;45222;52.458;20.914;2023-04-03T01:42:47;4.40;;;1.70;;
59416;SDS011;45222;52.458;20.914;2023-04-03T01:46:32;7.00;;;1.80;;
59416;SDS011;45222;52.458;20.914;2023-04-03T01:50:18;1.20;;;0.80;;
59416;SDS011;45222;52.458;20.914;2023-04-03T01:54:03;1.10;;;0.70;;
59416;SDS011;45222;52.458;20.914;2023-04-03T01:57:48;2.40;;;0.80;;
59416;SDS011;45222;52.458;20.914;2023-04-03T02:01:33;4.90;;;1.70;;
59416;SDS011;45222;52.458;20.914;2023-04-03T02:05:19;4.80;;;1.80;;
59416;SDS011;45222;52.458;20.914;2023-04-03T02:09:04;3.00;;;1.30;;
59416;SDS011;45222;52.458;20.914;2023-04-03T02:12:50;4.10;;;1.00;;
59416;SDS011;45222;52.458;20.914;2023-04-03T02:16:35;5.70;;;1.90;;
59416;SDS011;45222;52.458;20.914;2023-04-03T02:20:20;7.90;;;1.20;;
59416;SDS011;45222;52.458;20.914;2023-04-03T02:24:06;5.70;;;1.90;;
59416;SDS011;45222;52.458;20.914;2023-04-03T02:27:51;2.20;;;0.80;;
59416;SDS011;45222;52.458;20.914;2023-04-03T02:31:37;3.80;;;1.10;;
59416;SDS011;45222;52.458;20.914;2023-04-03T02:35:22;5.70;;;2.10;;
59416;SDS011;45222;52.458;20.914;2023-04-03T02:39:07;8.00;;;2.40;;
59416;SDS011;45222;52.458;20.914;2023-04-03T02:42:52;3.20;;;1.00;;
59416;SDS011;45222;52.458;20.914;2023-04-03T02:46:37;6.30;;;2.20;;
59416;SDS011;45222;52.458;20.914;2023-04-03T02:50:23;3.20;;;1.20;;
59416;SDS011;45222;52.458;20.914;2023-04-03T02:54:08;5.60;;;2.00;;
59416;SDS011;45222;52.458;20.914;2023-04-03T02:57:53;1.30;;;0.90;;
59416;SDS011;45222;52.458;20.914;2023-04-03T03:01:39;1.50;;;0.80;;
59416;SDS011;45222;52.458;20.914;2023-04-03T03:05:24;7.20;;;2.50;;
59416;SDS011;45222;52.458;20.914;2023-04-03T03:09:09;4.70;;;1.30;;
59416;SDS011;45222;52.458;20.914;2023-04-03T03:12:56;8.40;;;2.90;;
59416;SDS011;45222;52.458;20.914;2023-04-03T03:16:41;6.90;;;2.80;;
59416;SDS011;45222;52.458;20.914;2023-04-03T03:20:27;3.60;;;1.00;;
59416;SDS011;45222;52.458;20.914;2023-04-03T03:24:12;8.60;;;2.50;;
59416;SDS011;45222;52.458;20.914;2023-04-03T03:27:59;4.70;;;1.00;;
59416;SDS011;45222;52.458;20.914;2023-04-03T03:31:44;2.80;;;1.10;;
59416;SDS011;45222;52.458;20.914;2023-04-03T03:35:29;6.10;;;2.30;;
59416;SDS011;45222;52.458;20.914;2023-04-03T03:39:14;2.60;;;1.40;;
59416;SDS011;45222;52.458;20.914;2023-04-03T03:43:00;6.70;;;2.20;;
59416;SDS011;45222;52.458;20.914;2023-04-03T03:46:46;5.70;;;2.30;;
59416;SDS011;45222;52.458;20.914;2023-04-03T03:50:31;2.80;;;1.20;;
59416;SDS011;45222;52.458;20.914;2023-04-03T03:54:16;7.20;;;2.50;;
59416;SDS011;45222;52.458;20.914;2023-04-03T03:58:01;6.80;;;2.70;;
59416;SDS011;45222;52.458;20.914;2023-04-03T04:01:47;3.20;;;1.00;;
59416;SDS011;45222;52.458;20.914;2023-04-03T04:05:33;6.90;;;1.30;;
59416;SDS011;45222;52.458;20.914;2023-04-03T04:09:18;7.10;;;2.70;;
59416;SDS011;45222;52.458;20.914;2023-04-03T04:13:03;2.70;;;1.40;;
59416;SDS011;45222;52.458;20.914;2023-04-03T04:16:48;3.30;;;1.20;;
59416;SDS011;45222;52.458;20.914;2023-04-03T04:20:34;3.40;;;1.50;;
59416;SDS011;45222;52.458;20.914;2023-04-03T04:24:20;2.20;;;1.00;;
59416;SDS011;45222;52.458;20.914;2023-04-03T04:28:06;8.00;;;2.50;;
59416;SDS011;45222;52.458;20.914;2023-04-03T04:31:51;1.90;;;0.90;;
59416;SDS011;45222;52.458;20.914;2023-04-03T04:35:36;4.00;;;1.70;;
59416;SDS011;45222;52.458;20.914;2023-04-03T04:39:21;8.00;;;2.80;;
59416;SDS011;45222;52.458;20.914;2023-04-03T04:43:06;8.10;;;2.60;;
59416;SDS011;45222;52.458;20.914;2023-04-03T04:46:51;2.90;;;1.30;;
59416;SDS011;45222;52.458;20.914;2023-04-03T04:50:37;5.00;;;1.60;;
59416;SDS011;45222;52.458;20.914;2023-04-03T04:54:23;5.50;;;1.50;;
59416;SDS011;45222;52.458;20.914;2023-04-03T04:58:08;1.50;;;1.00;;
59416;SDS011;45222;52.458;20.914;2023-04-03T05:01:53;6.70;;;2.50;;
59416;SDS011;45222;52.458;20.914;2023-04-03T05:05:39;5.70;;;2.30;;
59416;SDS011;45222;52.458;20.914;2023-04-03T05:09:24;13.00;;;6.00;;
59416;SDS011;45222;52.458;20.914;2023-04-03T05:13:09;6.00;;;2.20;;
59416;SDS011;45222;52.458;20.914;2023-04-03T05:16:54;4.20;;;1.70;;
59416;SDS011;45222;52.458;20.914;2023-04-03T05:20:41;6.70;;;2.20;;
59416;SDS011;45222;52.458;20.914;2023-04-03T05:24:26;5.60;;;2.20;;
59416;SDS011;45222;52.458;20.914;2023-04-03T05:28:12;4.00;;;1.30;;
59416;SDS011;45222;52.458;20.914;2023-04-03T05:31:58;8.80;;;3.00;;
59416;SDS011;45222;52.458;20.914;2023-04-03T05:35:43;7.70;;;2.40;;
59416;SDS011;45222;52.458;20.914;2023-04-03T05:39:28;2.40;;;1.10;;
59416;SDS011;45222;52.458;20.914;2023-04-03T05:43:15;6.80;;;2.30;;
59416;SDS011;45222;52.458;20.914;2023-04-03T05:47:00;8.00;;;2.40;;
59416;SDS011;45222;52.458;20.914;2023-04-03T05:50:46;6.70;;;2.30;;
59416;SDS011;45222;52.458;20.914;2023-04-03T05:54:31;4.40;;;1.00;;
59416;SDS011;45222;52.458;20.914;2023-04-03T05:58:16;5.10;;;2.10;;
59416;SDS011;45222;52.458;20.914;2023-04-03T06:02:01;6.40;;;2.30;;
59416;SDS011;45222;52.458;20.914;2023-04-03T06:05:46;5.30;;;1.40;;
59416;SDS011;45222;52.458;20.914;2023-04-03T06:09:31;5.70;;;2.20;;
59416;SDS011;45222;52.458;20.914;2023-04-03T06:13:17;5.80;;;2.50;;
59416;SDS011;45222;52.458;20.914;2023-04-03T06:17:02;5.10;;;1.30;;
59416;SDS011;45222;52.458;20.914;2023-04-03T06:20:48;3.70;;;1.00;;
59416;SDS011;45222;52.458;20.914;2023-04-03T06:24:33;7.50;;;2.20;;
59416;SDS011;45222;52.458;20.914;2023-04-03T06:28:19;4.50;;;1.30;;
59416;SDS011;45222;52.458;20.914;2023-04-03T06:32:04;1.90;;;1.00;;
59416;SDS011;45222;52.458;20.914;2023-04-03T06:35:52;4.30;;;1.50;;
59416;SDS011;45222;52.458;20.914;2023-04-03T06:39:40;2.60;;;1.10;;
59416;SDS011;45222;52.458;20.914;2023-04-03T06:43:27;2.30;;;1.00;;
59416;SDS011;45222;52.458;20.914;2023-04-03T06:47:12;3.90;;;1.00;;
59416;SDS011;45222;52.458;20.914;2023-04-03T06:50:57;6.40;;;2.80;;
59416;SDS011;45222;52.458;20.914;2023-04-03T06:54:42;7.20;;;2.40;;
59416;SDS011;45222;52.458;20.914;2023-04-03T06:58:28;7.60;;;2.30;;
59416;SDS011;45222;52.458;20.914;2023-04-03T07:02:14;3.20;;;1.80;;
59416;SDS011;45222;52.458;20.914;2023-04-03T07:05:59;4.70;;;1.70;;
59416;SDS011;45222;52.458;20.914;2023-04-03T07:09:45;6.60;;;2.40;;
59416;SDS011;45222;52.458;20.914;2023-04-03T07:13:31;8.60;;;2.50;;
59416;SDS011;45222;52.458;20.914;2023-04-03T07:17:17;6.20;;;1.60;;
59416;SDS011;45222;52.458;20.914;2023-04-03T07:21:03;4.60;;;2.10;;
59416;SDS011;45222;52.458;20.914;2023-04-03T07:24:48;5.70;;;1.40;;
59416;SDS011;45222;52.458;20.914;2023-04-03T07:28:34;3.30;;;1.00;;
59416;SDS011;45222;52.458;20.914;2023-04-03T07:32:20;5.30;;;2.20;;
59416;SDS011;45222;52.458;20.914;2023-04-03T07:36:05;7.00;;;1.30;;
59416;SDS011;45222;52.458;20.914;2023-04-03T07:39:51;7.50;;;2.40;;
59416;SDS011;45222;52.458;20.914;2023-04-03T07:43:36;2.20;;;1.10;;
59416;SDS011;45222;52.458;20.914;2023-04-03T07:47:21;2.40;;;1.20;;
59416;SDS011;45222;52.458;20.914;2023-04-03T07:51:07;5.70;;;1.90;;
59416;SDS011;45222;52.458;20.914;2023-04-03T07:54:54;4.00;;;1.40;;
59416;SDS011;45222;52.458;20.914;2023-04-03T07:58:39;6.80;;;2.60;;
59416;SDS011;45222;52.458;20.914;2023-04-03T08:02:25;5.80;;;2.20;;
59416;SDS011;45222;52.458;20.914;2023-04-03T08:08:04;6.10;;;2.20;;
59416;SDS011;45222;52.458;20.914;2023-04-03T08:11:53;5.70;;;2.40;;
59416;SDS011;45222;52.458;20.914;2023-04-03T08:15:41;5.50;;;2.20;;
59416;SDS011;45222;52.458;20.914;2023-04-03T08:19:29;5.90;;;2.20;;
59416;SDS011;45222;52.458;20.914;2023-04-03T08:23:17;4.30;;;1.90;;
59416;SDS011;45222;52.458;20.914;2023-04-03T08:27:05;5.70;;;2.20;;
59416;SDS011;45222;52.458;20.914;2023-04-03T08:30:53;3.80;;;1.30;;
59416;SDS011;45222;52.458;20.914;2023-04-03T08:34:41;4.80;;;2.00;;
59416;SDS011;45222;52.458;20.914;2023-04-03T08:38:29;6.00;;;1.90;;
59416;SDS011;45222;52.458;20.914;2023-04-03T08:42:19;3.30;;;1.30;;
59416;SDS011;45222;52.458;20.914;2023-04-03T08:46:17;4.40;;;1.90;;
59416;SDS011;45222;52.458;20.914;2023-04-03T08:50:11;6.10;;;2.00;;
59416;SDS011;45222;52.458;20.914;2023-04-03T08:54:04;3.00;;;1.30;;
59416;SDS011;45222;52.458;20.914;2023-04-03T09:01:49;3.90;;;1.30;;
59416;SDS011;45222;52.458;20.914;2023-04-03T09:05:39;4.80;;;1.80;;
59416;SDS011;45222;52.458;20.914;2023-04-03T09:09:32;4.50;;;1.80;;
59416;SDS011;45222;52.458;20.914;2023-04-03T09:13:26;6.30;;;1.90;;
59416;SDS011;45222;52.458;20.914;2023-04-03T09:17:24;2.40;;;1.20;;
59416;SDS011;45222;52.458;20.914;2023-04-03T09:21:23;5.00;;;1.90;;
59416;SDS011;45222;52.458;20.914;2023-04-03T09:25:18;4.80;;;1.90;;
59416;SDS011;45222;52.458;20.914;2023-04-03T09:29:08;5.00;;;2.10;;
59416;SDS011;45222;52.458;20.914;2023-04-03T09:33:00;3.10;;;1.60;;
59416;SDS011;45222;52.458;20.914;2023-04-03T09:36:48;3.10;;;1.20;;
59416;SDS011;45222;52.458;20.914;2023-04-03T09:40:38;3.30;;;1.30;;
59416;SDS011;45222;52.458;20.914;2023-04-03T09:44:28;4.20;;;1.90;;
59416;SDS011;45222;52.458;20.914;2023-04-03T09:48:17;3.90;;;1.80;;
59416;SDS011;45222;52.458;20.914;2023-04-03T09:52:18;4.00;;;1.20;;
59416;SDS011;45222;52.458;20.914;2023-04-03T09:56:19;5.70;;;2.10;;
59416;SDS011;45222;52.458;20.914;2023-04-03T10:00:19;4.60;;;1.70;;
59416;SDS011;45222;52.458;20.914;2023-04-03T10:08:19;5.70;;;2.00;;
59416;SDS011;45222;52.458;20.914;2023-04-03T10:12:09;4.00;;;1.60;;
59416;SDS011;45222;52.458;20.914;2023-04-03T10:16:00;3.90;;;1.70;;
59416;SDS011;45222;52.458;20.914;2023-04-03T10:19:51;4.40;;;1.70;;
59416;SDS011;45222;52.458;20.914;2023-04-03T10:23:44;6.60;;;1.90;;
59416;SDS011;45222;52.458;20.914;2023-04-03T10:27:42;5.10;;;2.30;;
59416;SDS011;45222;52.458;20.914;2023-04-03T10:31:37;4.90;;;1.60;;
59416;SDS011;45222;52.458;20.914;2023-04-03T10:35:37;4.00;;;1.80;;
59416;SDS011;45222;52.458;20.914;2023-04-03T10:39:34;3.60;;;1.50;;
59416;SDS011;45222;52.458;20.914;2023-04-03T10:43:32;4.70;;;1.80;;
59416;SDS011;45222;52.458;20.914;2023-04-03T10:47:27;3.20;;;1.30;;
59416;SDS011;45222;52.458;20.914;2023-04-03T10:51:24;3.20;;;1.40;;
59416;SDS011;45222;52.458;20.914;2023-04-03T10:55:20;3.20;;;1.30;;
59416;SDS011;45222;52.458;20.914;2023-04-03T10:59:21;3.60;;;1.60;;
59416;SDS011;45222;52.458;20.914;2023-04-03T11:03:14;3.00;;;1.50;;
59416;SDS011;45222;52.458;20.914;2023-04-03T11:07:12;3.30;;;1.50;;
59416;SDS011;45222;52.458;20.914;2023-04-03T11:11:05;3.50;;;1.40;;
59416;SDS011;45222;52.458;20.914;2023-04-03T11:14:57;3.20;;;1.60;;
59416;SDS011;45222;52.458;20.914;2023-04-03T11:18:48;3.60;;;1.70;;
59416;SDS011;45222;52.458;20.914;2023-04-03T11:22:41;3.00;;;1.40;;
59416;SDS011;45222;52.458;20.914;2023-04-03T11:26:31;3.70;;;1.50;;
59416;SDS011;45222;52.458;20.914;2023-04-03T11:30:23;6.00;;;1.60;;
59416;SDS011;45222;52.458;20.914;2023-04-03T11:34:17;2.80;;;1.30;;
59416;SDS011;45222;52.458;20.914;2023-04-03T11:38:21;4.20;;;1.60;;
59416;SDS011;45222;52.458;20.914;2023-04-03T11:42:14;3.20;;;1.50;;
59416;SDS011;45222;52.458;20.914;2023-04-03T11:46:11;4.50;;;1.80;;
59416;SDS011;45222;52.458;20.914;2023-04-03T11:50:02;3.70;;;1.60;;
59416;SDS011;45222;52.458;20.914;2023-04-03T11:53:51;4.00;;;1.70;;
59416;SDS011;45222;52.458;20.914;2023-04-03T11:57:46;4.80;;;1.50;;
59416;SDS011;45222;52.458;20.914;2023-04-03T12:11:15;2.20;;;1.30;;
59416;SDS011;45222;52.458;20.914;2023-04-03T12:15:23;3.20;;;1.30;;
59416;SDS011;45222;52.458;20.914;2023-04-03T12:19:35;3.40;;;1.40;;
59416;SDS011;45222;52.458;20.914;2023-04-03T12:23:24;4.80;;;1.90;;
59416;SDS011;45222;52.458;20.914;2023-04-03T12:27:21;3.60;;;1.60;;
59416;SDS011;45222;52.458;20.914;2023-04-03T12:31:16;4.20;;;1.60;;
59416;SDS011;45222;52.458;20.914;2023-04-03T12:35:09;3.70;;;1.30;;
59416;SDS011;45222;52.458;20.914;2023-04-03T12:39:03;2.80;;;1.30;;
59416;SDS011;45222;52.458;20.914;2023-04-03T12:43:03;3.40;;;1.70;;
59416;SDS011;45222;52.458;20.914;2023-04-03T12:47:16;3.50;;;1.40;;
59416;SDS011;45222;52.458;20.914;2023-04-03T12:51:06;3.10;;;1.30;;
59416;SDS011;45222;52.458;20.914;2023-04-03T12:54:52;3.10;;;1.20;;
59416;SDS011;45222;52.458;20.914;2023-04-03T12:58:39;3.20;;;1.40;;
59416;SDS011;45222;52.458;20.914;2023-04-03T13:02:26;4.60;;;1.60;;
59416;SDS011;45222;52.458;20.914;2023-04-03T13:06:14;5.80;;;1.30;;
59416;SDS011;45222;52.458;20.914;2023-04-03T13:10:13;3.90;;;1.40;;
59416;SDS011;45222;52.458;20.914;2023-04-03T13:14:01;3.00;;;1.40;;
59416;SDS011;45222;52.458;20.914;2023-04-03T13:17:49;3.50;;;1.50;;
59416;SDS011;45222;52.458;20.914;2023-04-03T13:21:36;3.20;;;1.40;;
59416;SDS011;45222;52.458;20.914;2023-04-03T13:25:21;3.10;;;1.40;;
59416;SDS011;45222;52.458;20.914;2023-04-03T13:29:17;2.80;;;1.30;;
59416;SDS011;45222;52.458;20.914;2023-04-03T13:33:17;3.10;;;1.50;;
59416;SDS011;45222;52.458;20.914;2023-04-03T13:37:06;2.60;;;1.20;;
59416;SDS011;45222;52.458;20.914;2023-04-03T13:41:04;4.70;;;1.60;;
59416;SDS011;45222;52.458;20.914;2023-04-03T13:45:16;4.20;;;1.50;;
59416;SDS011;45222;52.458;20.914;2023-04-03T13:49:09;7.20;;;2.00;;
59416;SDS011;45222;52.458;20.914;2023-04-03T13:53:08;4.80;;;1.70;;
59416;SDS011;45222;52.458;20.914;2023-04-03T13:56:58;3.70;;;1.50;;
59416;SDS011;45222;52.458;20.914;2023-04-03T14:00:48;4.90;;;1.70;;
59416;SDS011;45222;52.458;20.914;2023-04-03T14:04:45;5.00;;;1.60;;
59416;SDS011;45222;52.458;20.914;2023-04-03T14:08:36;2.60;;;1.20;;
59416;SDS011;45222;52.458;20.914;2023-04-03T14:12:24;4.00;;;1.60;;
59416;SDS011;45222;52.458;20.914;2023-04-03T14:16:13;3.00;;;1.40;;
59416;SDS011;45222;52.458;20.914;2023-04-03T14:20:00;3.60;;;1.70;;
59416;SDS011;45222;52.458;20.914;2023-04-03T14:23:46;3.40;;;1.60;;
59416;SDS011;45222;52.458;20.914;2023-04-03T14:27:34;3.10;;;1.50;;
59416;SDS011;45222;52.458;20.914;2023-04-03T14:31:24;4.00;;;1.60;;
59416;SDS011;45222;52.458;20.914;2023-04-03T14:35:09;3.60;;;1.40;;
59416;SDS011;45222;52.458;20.914;2023-04-03T14:38:55;3.60;;;1.60;;
59416;SDS011;45222;52.458;20.914;2023-04-03T14:42:41;4.20;;;1.80;;
59416;SDS011;45222;52.458;20.914;2023-04-03T14:46:28;3.10;;;1.50;;
59416;SDS011;45222;52.458;20.914;2023-04-03T14:50:19;4.90;;;2.00;;
59416;SDS011;45222;52.458;20.914;2023-04-03T14:54:06;3.10;;;1.30;;
59416;SDS011;45222;52.458;20.914;2023-04-03T14:57:58;6.20;;;1.70;;
59416;SDS011;45222;52.458;20.914;2023-04-03T15:01:43;3.10;;;1.70;;
59416;SDS011;45222;52.458;20.914;2023-04-03T15:05:28;4.30;;;2.00;;
59416;SDS011;45222;52.458;20.914;2023-04-03T15:09:17;6.00;;;2.00;;
59416;SDS011;45222;52.458;20.914;2023-04-03T15:13:05;5.60;;;2.10;;
59416;SDS011;45222;52.458;20.914;2023-04-03T15:16:50;4.00;;;1.80;;
59416;SDS011;45222;52.458;20.914;2023-04-03T15:20:35;4.20;;;1.80;;
59416;SDS011;45222;52.458;20.914;2023-04-03T15:24:20;5.20;;;2.10;;
59416;SDS011;45222;52.458;20.914;2023-04-03T15:28:06;3.70;;;1.70;;
59416;SDS011;45222;52.458;20.914;2023-04-03T15:31:52;3.70;;;1.60;;
59416;SDS011;45222;52.458;20.914;2023-04-03T15:35:38;4.30;;;1.80;;
59416;SDS011;45222;52.458;20.914;2023-04-03T15:39:23;5.70;;;2.30;;
59416;SDS011;45222;52.458;20.914;2023-04-03T15:43:11;5.10;;;2.00;;
59416;SDS011;45222;52.458;20.914;2023-04-03T15:46:57;5.70;;;2.50;;
59416;SDS011;45222;52.458;20.914;2023-04-03T15:50:43;5.50;;;2.40;;
59416;SDS011;45222;52.458;20.914;2023-04-03T15:54:28;7.00;;;2.50;;
59416;SDS011;45222;52.458;20.914;2023-04-03T15:58:14;5.00;;;2.40;;
59416;SDS011;45222;52.458;20.914;2023-04-03T16:01:59;6.20;;;2.40;;
59416;SDS011;45222;52.458;20.914;2023-04-03T16:05:48;6.50;;;2.60;;
59416;SDS011;45222;52.458;20.914;2023-04-03T16:09:33;7.50;;;3.10;;
59416;SDS011;45222;52.458;20.914;2023-04-03T16:13:20;6.90;;;2.60;;
59416;SDS011;45222;52.458;20.914;2023-04-03T16:17:07;5.90;;;2.30;;
59416;SDS011;45222;52.458;20.914;2023-04-03T16:20:52;5.50;;;2.30;;
59416;SDS011;45222;52.458;20.914;2023-04-03T16:24:38;6.70;;;2.70;;
59416;SDS011;45222;52.458;20.914;2023-04-03T16:28:23;6.10;;;2.60;;
59416;SDS011;45222;52.458;20.914;2023-04-03T16:32:08;4.90;;;2.40;;
59416;SDS011;45222;52.458;20.914;2023-04-03T16:35:54;12.60;;;5.90;;
59416;SDS011;45222;52.458;20.914;2023-04-03T16:39:39;6.80;;;3.00;;
59416;SDS011;45222;52.458;20.914;2023-04-03T16:43:25;5.90;;;2.50;;
59416;SDS011;45222;52.458;20.914;2023-04-03T16:47:11;6.60;;;2.90;;
59416;SDS011;45222;52.458;20.914;2023-04-03T16:50:58;6.80;;;3.00;;
59416;SDS011;45222;52.458;20.914;2023-04-03T16:54:44;8.70;;;3.80;;
59416;SDS011;45222;52.458;20.914;2023-04-03T16:58:29;8.60;;;4.20;;
59416;SDS011;45222;52.458;20.914;2023-04-03T17:02:16;7.90;;;2.90;;
59416;SDS011;45222;52.458;20.914;2023-04-03T17:06:02;9.80;;;4.90;;
59416;SDS011;45222;52.458;20.914;2023-04-03T17:09:48;10.80;;;5.50;;
59416;SDS011;45222;52.458;20.914;2023-04-03T17:13:34;9.30;;;4.80;;
59416;SDS011;45222;52.458;20.914;2023-04-03T17:17:21;10.00;;;4.50;;
59416;SDS011;45222;52.458;20.914;2023-04-03T17:21:08;7.80;;;2.20;;
59416;SDS011;45222;52.458;20.914;2023-04-03T17:24:54;8.10;;;4.20;;
59416;SDS011;45222;52.458;20.914;2023-04-03T17:28:40;8.20;;;4.30;;
59416;SDS011;45222;52.458;20.914;2023-04-03T17:32:25;8.60;;;3.90;;
59416;SDS011;45222;52.458;20.914;2023-04-03T17:36:11;8.10;;;4.30;;
59416;SDS011;45222;52.458;20.914;2023-04-03T17:39:56;10.10;;;5.10;;
59416;SDS011;45222;52.458;20.914;2023-04-03T17:43:42;9.60;;;4.90;;
59416;SDS011;45222;52.458;20.914;2023-04-03T17:47:28;8.30;;;4.40;;
59416;SDS011;45222;52.458;20.914;2023-04-03T17:51:14;10.40;;;4.90;;
59416;SDS011;45222;52.458;20.914;2023-04-03T17:55:03;9.30;;;5.70;;
59416;SDS011;45222;52.458;20.914;2023-04-03T17:58:51;10.50;;;6.10;;
59416;SDS011;45222;52.458;20.914;2023-04-03T18:02:40;11.30;;;6.80;;
59416;SDS011;45222;52.458;20.914;2023-04-03T18:06:27;11.50;;;7.40;;
59416;SDS011;45222;52.458;20.914;2023-04-03T18:10:15;10.90;;;5.50;;
59416;SDS011;45222;52.458;20.914;2023-04-03T18:14:01;10.00;;;6.10;;
59416;SDS011;45222;52.458;20.914;2023-04-03T18:17:48;10.70;;;5.60;;
59416;SDS011;45222;52.458;20.914;2023-04-03T18:21:40;11.00;;;5.60;;
59416;SDS011;45222;52.458;20.914;2023-04-03T18:25:28;13.20;;;6.50;;
59416;SDS011;45222;52.458;20.914;2023-04-03T18:29:14;10.40;;;3.90;;
59416;SDS011;45222;52.458;20.914;2023-04-03T18:33:04;10.00;;;6.00;;
59416;SDS011;45222;52.458;20.914;2023-04-03T18:36:50;9.50;;;5.40;;
59416;SDS011;45222;52.458;20.914;2023-04-03T18:40:36;7.50;;;3.00;;
59416;SDS011;45222;52.458;20.914;2023-04-03T18:44:24;9.90;;;5.60;;
59416;SDS011;45222;52.458;20.914;2023-04-03T18:48:12;10.40;;;6.00;;
59416;SDS011;45222;52.458;20.914;2023-04-03T18:51:58;10.20;;;6.10;;
59416;SDS011;45222;52.458;20.914;2023-04-03T18:55:44;8.00;;;3.30;;
59416;SDS011;45222;52.458;20.914;2023-04-03T18:59:30;10.60;;;5.90;;
59416;SDS011;45222;52.458;20.914;2023-04-03T19:03:16;8.90;;;3.70;;
59416;SDS011;45222;52.458;20.914;2023-04-03T19:07:03;9.00;;;5.60;;
59416;SDS011;45222;52.458;20.914;2023-04-03T19:10:49;6.40;;;2.30;;
59416;SDS011;45222;52.458;20.914;2023-04-03T19:14:35;11.20;;;6.90;;
59416;SDS011;45222;52.458;20.914;2023-04-03T19:18:21;10.60;;;7.40;;
59416;SDS011;45222;52.458;20.914;2023-04-03T19:22:06;9.90;;;6.20;;
59416;SDS011;45222;52.458;20.914;2023-04-03T19:25:58;9.90;;;6.80;;
59416;SDS011;45222;52.458;20.914;2023-04-03T19:29:44;11.40;;;7.60;;
59416;SDS011;45222;52.458;20.914;2023-04-03T19:33:31;9.20;;;4.30;;
59416;SDS011;45222;52.458;20.914;2023-04-03T19:37:19;11.00;;;6.40;;
59416;SDS011;45222;52.458;20.914;2023-04-03T19:41:05;10.90;;;7.20;;
59416;SDS011;45222;52.458;20.914;2023-04-03T19:44:54;7.90;;;3.40;;
59416;SDS011;45222;52.458;20.914;2023-04-03T19:48:40;9.90;;;6.40;;
59416;SDS011;45222;52.458;20.914;2023-04-03T19:52:26;10.60;;;6.00;;
59416;SDS011;45222;52.458;20.914;2023-04-03T19:56:11;10.00;;;5.60;;
59416;SDS011;45222;52.458;20.914;2023-04-03T19:59:58;9.20;;;5.80;;
59416;SDS011;45222;52.458;20.914;2023-04-03T20:03:45;8.90;;;2.70;;
59416;SDS011;45222;52.458;20.914;2023-04-03T20:07:31;10.50;;;5.60;;
59416;SDS011;45222;52.458;20.914;2023-04-03T20:11:17;9.20;;;5.30;;
59416;SDS011;45222;52.458;20.914;2023-04-03T20:15:03;7.40;;;2.60;;
59416;SDS011;45222;52.458;20.914;2023-04-03T20:18:50;11.80;;;7.10;;
59416;SDS011;45222;52.458;20.914;2023-04-03T20:22:37;12.00;;;6.90;;
59416;SDS011;45222;52.458;20.914;2023-04-03T20:26:24;12.90;;;6.90;;
59416;SDS011;45222;52.458;20.914;2023-04-03T20:30:11;11.50;;;6.70;;
59416;SDS011;45222;52.458;20.914;2023-04-03T20:33:57;9.90;;;5.50;;
59416;SDS011;45222;52.458;20.914;2023-04-03T20:37:45;8.90;;;4.60;;
59416;SDS011;45222;52.458;20.914;2023-04-03T20:41:30;7.70;;;4.40;;
59416;SDS011;45222;52.458;20.914;2023-04-03T20:45:19;10.30;;;5.20;;
59416;SDS011;45222;52.458;20.914;2023-04-03T20:49:06;8.20;;;4.80;;
59416;SDS011;45222;52.458;20.914;2023-04-03T20:52:53;9.10;;;4.90;;
59416;SDS011;45222;52.458;20.914;2023-04-03T20:56:40;9.70;;;2.40;;
59416;SDS011;45222;52.458;20.914;2023-04-03T21:00:27;5.60;;;2.20;;
59416;SDS011;45222;52.458;20.914;2023-04-03T21:04:17;10.70;;;4.80;;
59416;SDS011;45222;52.458;20.914;2023-04-03T21:20:34;8.70;;;4.70;;
59416;SDS011;45222;52.458;20.914;2023-04-03T21:24:22;7.90;;;1.80;;
59416;SDS011;45222;52.458;20.914;2023-04-03T21:28:08;9.40;;;4.70;;
59416;SDS011;45222;52.458;20.914;2023-04-03T21:31:55;6.50;;;1.80;;
59416;SDS011;45222;52.458;20.914;2023-04-03T21:35:41;8.60;;;4.40;;
59416;SDS011;45222;52.458;20.914;2023-04-03T21:39:27;4.70;;;1.70;;
59416;SDS011;45222;52.458;20.914;2023-04-03T21:43:12;5.20;;;2.10;;
59416;SDS011;45222;52.458;20.914;2023-04-03T21:46:57;8.00;;;4.20;;
59416;SDS011;45222;52.458;20.914;2023-04-03T21:50:43;5.10;;;1.70;;
59416;SDS011;45222;52.458;20.914;2023-04-03T21:54:31;7.50;;;2.00;;
59416;SDS011;45222;52.458;20.914;2023-04-03T21:58:16;5.30;;;1.70;;
59416;SDS011;45222;52.458;20.914;2023-04-03T22:02:03;8.70;;;4.60;;
59416;SDS011;45222;52.458;20.914;2023-04-03T22:05:48;7.00;;;2.30;;
59416;SDS011;45222;52.458;20.914;2023-04-03T22:09:33;8.50;;;4.00;;
59416;SDS011;45222;52.458;20.914;2023-04-03T22:13:19;8.40;;;4.60;;
59416;SDS011;45222;52.458;20.914;2023-04-03T22:17:06;8.20;;;4.20;;
59416;SDS011;45222;52.458;20.914;2023-04-03T22:20:52;7.80;;;4.30;;
59416;SDS011;45222;52.458;20.914;2023-04-03T22:24:39;5.50;;;1.80;;
59416;SDS011;45222;52.458;20.914;2023-04-03T22:28:26;9.50;;;4.40;;
59416;SDS011;45222;52.458;20.914;2023-04-03T22:32:12;2.90;;;1.40;;
59416;SDS011;45222;52.458;20.914;2023-04-03T22:35:59;5.10;;;1.70;;
59416;SDS011;45222;52.458;20.914;2023-04-03T22:39:45;9.50;;;4.10;;
59416;SDS011;45222;52.458;20.914;2023-04-03T22:43:31;6.20;;;1.90;;
59416;SDS011;45222;52.458;20.914;2023-04-03T22:47:17;8.60;;;4.10;;
59416;SDS011;45222;52.458;20.914;2023-04-03T22:51:03;5.00;;;1.80;;
59416;SDS011;45222;52.458;20.914;2023-04-03T22:54:50;8.40;;;4.00;;
59416;SDS011;45222;52.458;20.914;2023-04-03T22:58:35;11.30;;;2.10;;
59416;SDS011;45222;52.458;20.914;2023-04-03T23:02:21;9.10;;;4.10;;